Time;durP1;ratioP1;P1;durP2;ratioP2;P2;SDS_P1;SDS_P2;PMS_P1;PMS_P2;Temp;Humidity;BMP_temperature;BMP_pressure;BME280_temperature;BME280_humidity;BME280_pressure;Samples;Min_cycle;Max_cycle;Signal;HPM_P1;HPM_P2
2023/01/05 00:00:19;;;;;;;1.30;1.20;;;;;;;24.45;39.72;100533.75;1871547;76;28677;-46
2023/01/05 00:03:07;;;;;;;1.20;1.20;;;;;;;24.46;39.75;100529.08;1865768;76;28165;-45
2023/01/05 00:06:01;;;;;;;1.20;1.20;;;;;;;24.46;39.74;100524.43;1877233;76;28176;-46
2023/01/05 00:08:49;;;;;;;1.82;1.30;;;;;;;24.43;39.77;100527.64;1845599;77;28203;-44
2023/01/05 00:24:03;;;;;;;1.40;1.30;;;;;;;24.42;39.70;100512.22;1879099;76;28155;-45
2023/01/05 00:26:51;;;;;;;1.20;1.20;;;;;;;24.46;39.66;100509.84;1859843;74;28172;-43
2023/01/05 00:29:41;;;;;;;1.55;1.30;;;;;;;24.43;39.64;100513.91;1878520;76;28086;-43
2023/01/05 00:32:29;;;;;;;1.20;1.20;;;;;;;24.44;39.66;100517.47;1876785;75;28200;-43
2023/01/05 00:35:19;;;;;;;1.30;1.30;;;;;;;24.46;39.64;100513.45;1871843;76;28698;-42
2023/01/05 00:38:08;;;;;;;1.40;1.30;;;;;;;24.45;39.60;100513.16;1878926;76;28151;-44
2023/01/05 00:40:58;;;;;;;2.05;1.20;;;;;;;24.47;39.54;100510.17;1878785;76;28100;-42
2023/01/05 00:43:46;;;;;;;1.20;1.20;;;;;;;24.46;39.58;100512.59;1878538;76;28234;-43
2023/01/05 00:46:35;;;;;;;1.00;1.00;;;;;;;24.45;39.57;100509.03;1879185;75;28140;-42
2023/01/05 00:49:23;;;;;;;1.22;1.20;;;;;;;24.43;39.54;100512.54;1858164;76;28150;-45
2023/01/05 00:52:11;;;;;;;1.07;1.07;;;;;;;24.42;39.56;100511.36;1851676;76;28136;-43
2023/01/05 00:55:00;;;;;;;1.13;1.03;;;;;;;24.42;39.55;100505.34;1855408;76;28211;-45
2023/01/05 00:57:48;;;;;;;1.55;1.42;;;;;;;24.42;39.57;100509.47;1877946;76;28171;-45
2023/01/05 01:00:39;;;;;;;1.10;1.10;;;;;;;24.44;39.53;100505.96;1877453;76;28141;-44
2023/01/05 01:03:27;;;;;;;1.00;1.00;;;;;;;24.42;39.55;100501.23;1875704;76;28429;-43
2023/01/05 01:06:16;;;;;;;1.17;1.10;;;;;;;24.44;39.49;100504.59;1863074;76;28144;-44
2023/01/05 01:09:05;;;;;;;1.25;1.20;;;;;;;24.43;39.51;100500.17;1859088;76;28149;-42
2023/01/05 01:11:54;;;;;;;1.40;1.30;;;;;;;24.41;39.56;100500.91;1878362;76;28149;-46
2023/01/05 01:14:44;;;;;;;1.40;1.30;;;;;;;24.41;39.55;100499.53;1880701;76;28166;-43
2023/01/05 01:17:33;;;;;;;1.17;1.17;;;;;;;24.40;39.54;100500.61;1869581;76;31133;-45
2023/01/05 01:20:21;;;;;;;1.80;1.30;;;;;;;24.44;39.52;100501.00;1845693;77;28223;-43
2023/01/05 01:23:10;;;;;;;1.30;1.30;;;;;;;24.46;39.47;100502.45;1873148;76;28155;-43
2023/01/05 01:25:58;;;;;;;1.22;1.22;;;;;;;24.43;39.50;100507.05;1877025;76;28152;-43
2023/01/05 01:28:50;;;;;;;1.22;1.22;;;;;;;24.45;39.46;100505.44;1870350;76;28168;-45
2023/01/05 01:31:38;;;;;;;1.25;1.20;;;;;;;24.40;39.50;100505.26;1857547;76;28136;-44
2023/01/05 01:34:27;;;;;;;1.15;1.12;;;;;;;24.42;39.48;100509.47;1854676;76;28508;-44
2023/01/05 01:37:16;;;;;;;1.40;1.17;;;;;;;24.42;39.50;100509.99;1877610;76;28323;-44
2023/01/05 01:40:08;;;;;;;1.20;1.20;;;;;;;24.42;39.53;100508.62;1879347;76;28073;-42
2023/01/05 01:42:56;;;;;;;1.75;1.30;;;;;;;24.42;39.50;100514.11;1845747;77;32112;-43
2023/01/05 01:45:45;;;;;;;1.40;1.30;;;;;;;24.42;39.46;100509.47;1866555;76;28259;-46
2023/01/05 01:48:35;;;;;;;1.30;1.25;;;;;;;24.42;39.50;100507.24;1867080;76;28606;-43
2023/01/05 01:51:45;;;;;;;1.70;1.23;;;;;;;24.42;39.47;100509.47;1879355;76;28093;-45
2023/01/05 01:54:34;;;;;;;1.20;1.20;;;;;;;24.42;39.46;100506.72;1870670;76;28597;-43
2023/01/05 01:57:23;;;;;;;1.30;1.20;;;;;;;24.35;39.50;100501.80;1877009;76;28189;-42
2023/01/05 02:00:13;;;;;;;1.23;1.13;;;;;;;24.38;39.55;100509.61;1877544;76;28197;-42
2023/01/05 02:03:10;;;;;;;1.27;1.17;;;;;;;24.41;39.47;100497.34;1879917;76;28113;-43
2023/01/05 02:06:00;;;;;;;1.27;1.27;;;;;;;24.41;39.50;100505.58;1861149;76;28128;-43
2023/01/05 02:08:49;;;;;;;1.10;1.10;;;;;;;24.40;39.49;100508.85;1866991;76;28270;-45
2023/01/05 02:11:56;;;;;;;1.17;1.17;;;;;;;24.42;39.40;100506.72;1848937;76;28310;-42
2023/01/05 02:14:59;;;;;;;1.27;1.27;;;;;;;24.43;39.43;100504.30;1867801;76;28185;-45
2023/01/05 02:18:05;;;;;;;1.25;1.25;;;;;;;24.39;39.47;100501.66;1868074;76;28113;-43
2023/01/05 02:21:00;;;;;;;1.10;1.10;;;;;;;24.40;39.47;100498.39;1857539;76;28223;-43
2023/01/05 02:24:19;;;;;;;1.27;1.10;;;;;;;24.40;39.50;100491.52;1861673;76;28133;-44
2023/01/05 02:27:40;;;;;;;1.40;1.30;;;;;;;24.38;39.47;100489.02;1847856;75;28580;-44
2023/01/05 02:30:34;;;;;;;1.20;1.20;;;;;;;24.36;39.52;100485.66;1847226;77;28177;-44
2023/01/05 02:33:35;;;;;;;1.50;1.20;;;;;;;24.36;39.53;100484.80;1836805;77;28400;-45
2023/01/05 02:36:30;;;;;;;1.32;1.25;;;;;;;24.36;39.47;100478.78;1847025;76;28213;-42
2023/01/05 02:39:23;;;;;;;1.40;1.30;;;;;;;24.37;39.49;100471.36;1856155;77;28141;-43
2023/01/05 02:42:16;;;;;;;1.30;1.25;;;;;;;24.39;39.48;100472.83;1862255;76;28145;-43
2023/01/05 02:45:08;;;;;;;1.40;1.30;;;;;;;24.39;39.47;100472.83;1859915;76;28191;-43
2023/01/05 02:47:58;;;;;;;2.05;1.37;;;;;;;24.42;39.40;100466.05;1837916;77;28191;-43
2023/01/05 02:50:59;;;;;;;1.40;1.30;;;;;;;24.42;39.34;100465.53;1842397;76;28186;-43
2023/01/05 02:53:48;;;;;;;1.27;1.17;;;;;;;24.43;39.38;100460.87;1862357;76;28155;-42
2023/01/05 02:56:43;;;;;;;1.20;1.20;;;;;;;24.40;39.38;100463.54;1872135;76;28101;-44
2023/01/05 02:59:34;;;;;;;1.25;1.25;;;;;;;24.41;39.43;100456.15;1835798;76;28318;-42
2023/01/05 03:02:29;;;;;;;1.10;1.10;;;;;;;24.39;39.43;100451.38;1847241;76;28189;-42
2023/01/05 03:05:26;;;;;;;1.23;1.20;;;;;;;24.39;39.43;100445.89;1869312;76;28188;-43
2023/01/05 03:08:27;;;;;;;1.30;1.30;;;;;;;24.37;39.41;100443.91;1869501;76;28184;-44
2023/01/05 03:14:23;;;;;;;1.07;1.07;;;;;;;24.38;39.44;100429.12;1861241;76;28066;-45
2023/01/05 03:17:15;;;;;;;1.27;1.27;;;;;;;24.35;39.45;100432.30;1856824;76;28181;-45
2023/01/05 03:20:08;;;;;;;1.10;1.10;;;;;;;24.35;39.51;100433.67;1859936;76;28165;-45
2023/01/05 03:35:38;;;;;;;1.35;1.25;;;;;;;24.31;39.50;100422.31;1869179;76;28113;-42
2023/01/05 03:38:36;;;;;;;1.22;1.22;;;;;;;24.31;39.53;100417.34;1867985;75;28140;-44
2023/01/05 03:41:26;;;;;;;1.30;1.30;;;;;;;24.32;39.53;100417.11;1864462;75;28137;-44
2023/01/05 03:44:16;;;;;;;1.25;1.25;;;;;;;24.33;39.51;100421.55;1860958;75;28203;-42
2023/01/05 03:47:06;;;;;;;1.13;1.13;;;;;;;24.35;39.48;100407.59;1883967;75;28143;-43
2023/01/05 03:49:55;;;;;;;1.15;1.15;;;;;;;24.37;39.39;100411.80;1883961;75;28185;-43
2023/01/05 03:52:44;;;;;;;1.30;1.25;;;;;;;24.38;39.38;100414.02;1863110;75;28133;-43
2023/01/05 03:55:32;;;;;;;1.25;1.25;;;;;;;24.38;39.35;100411.27;1883774;75;28536;-42
2023/01/05 03:58:21;;;;;;;2.10;1.20;;;;;;;24.42;39.28;100411.13;1883836;75;28354;-43
2023/01/05 04:01:10;;;;;;;1.25;1.20;;;;;;;24.43;39.31;100411.44;1883671;75;28266;-43
2023/01/05 04:03:59;;;;;;;1.10;1.10;;;;;;;24.43;39.25;100408.70;1861898;75;28177;-43
2023/01/05 04:06:47;;;;;;;1.42;1.32;;;;;;;24.43;39.22;100407.33;1883707;75;28155;-44
2023/01/05 04:09:36;;;;;;;1.60;1.50;;;;;;;24.42;39.20;100407.00;1883730;75;28219;-46
2023/01/05 04:12:25;;;;;;;1.10;1.10;;;;;;;24.40;39.24;100408.61;1866443;75;28146;-43
2023/01/05 04:15:13;;;;;;;1.50;1.40;;;;;;;24.36;39.27;100405.16;1884005;75;28133;-44
2023/01/05 04:18:03;;;;;;;1.35;1.30;;;;;;;24.35;39.29;100401.58;1884018;75;28546;-43
2023/01/05 04:20:51;;;;;;;1.47;1.40;;;;;;;24.35;39.27;100408.97;1883885;75;28090;-42
2023/01/05 04:23:39;;;;;;;1.40;1.30;;;;;;;24.39;39.28;100406.07;1865132;75;28395;-43
2023/01/05 04:26:29;;;;;;;1.20;1.20;;;;;;;24.38;39.22;100402.51;1857840;75;28137;-44
2023/01/05 04:29:18;;;;;;;1.30;1.20;;;;;;;24.38;39.22;100395.64;1884020;75;28312;-43
2023/01/05 04:32:08;;;;;;;1.50;1.40;;;;;;;24.35;39.28;100393.86;1868276;75;28096;-43
2023/01/05 04:34:56;;;;;;;1.10;1.10;;;;;;;24.34;39.29;100396.31;1849462;76;28180;-43
2023/01/05 04:37:45;;;;;;;1.30;1.30;;;;;;;24.35;39.26;100391.96;1869732;76;28398;-44
2023/01/05 04:40:34;;;;;;;1.47;1.37;;;;;;;24.37;39.22;100394.47;1870158;76;28146;-42
2023/01/05 04:43:23;;;;;;;1.20;1.20;;;;;;;24.36;39.22;100390.91;1866136;76;28125;-45
2023/01/05 04:46:11;;;;;;;1.20;1.20;;;;;;;24.35;39.17;100382.87;1836022;76;28255;-43
2023/01/05 04:49:00;;;;;;;1.45;1.35;;;;;;;24.36;39.18;100388.16;1860640;76;28122;-43
2023/01/05 04:51:49;;;;;;;1.57;1.47;;;;;;;24.34;39.25;100387.52;1859061;76;28186;-42
2023/01/05 04:54:39;;;;;;;1.20;1.20;;;;;;;24.32;39.20;100381.41;1863998;76;28117;-42
2023/01/05 04:57:29;;;;;;;1.62;1.50;;;;;;;24.32;39.23;100384.16;1838179;76;38571;-44
2023/01/05 05:00:19;;;;;;;1.17;1.17;;;;;;;24.30;39.21;100386.82;1862438;76;28137;-43
2023/01/05 05:03:09;;;;;;;1.30;1.30;;;;;;;24.32;39.25;100391.03;1872793;76;28232;-44
2023/01/05 05:05:58;;;;;;;1.45;1.40;;;;;;;24.34;39.21;100394.94;1871257;76;28096;-45
2023/01/05 05:08:48;;;;;;;1.37;1.27;;;;;;;24.34;39.19;100390.83;1873031;76;28142;-44
2023/01/05 05:11:37;;;;;;;1.17;1.17;;;;;;;24.33;39.16;100389.13;1872646;76;28156;-42
2023/01/05 05:14:26;;;;;;;1.30;1.30;;;;;;;24.32;39.17;100388.28;1872422;76;28143;-44
2023/01/05 05:17:14;;;;;;;1.50;1.40;;;;;;;24.28;39.24;100387.06;1837022;77;28207;-44
2023/01/05 05:20:05;;;;;;;1.40;1.35;;;;;;;24.30;39.21;100397.28;1846013;76;30086;-44
2023/01/05 05:22:53;;;;;;;1.42;1.32;;;;;;;24.28;39.25;100392.55;1869162;76;28102;-44
2023/01/05 05:25:41;;;;;;;1.40;1.30;;;;;;;24.31;39.22;100394.02;1865272;76;28158;-42
2023/01/05 05:28:30;;;;;;;1.20;1.20;;;;;;;24.33;39.20;100396.84;1869165;76;28156;-43
2023/01/05 05:31:19;;;;;;;1.37;1.30;;;;;;;24.32;39.24;100398.45;1869866;76;28433;-43
2023/01/05 05:34:07;;;;;;;1.22;1.22;;;;;;;24.30;39.31;100391.79;1874057;76;28399;-47
2023/01/05 05:36:55;;;;;;;1.20;1.20;;;;;;;24.32;39.25;100395.70;1871348;76;28069;-43
2023/01/05 05:39:44;;;;;;;1.03;1.03;;;;;;;24.34;39.29;100393.02;1836979;77;28168;-47
2023/01/05 05:42:32;;;;;;;1.43;1.20;;;;;;;24.32;39.26;100392.41;1857187;76;28411;-45
2023/01/05 05:45:21;;;;;;;1.20;1.12;;;;;;;24.29;39.35;100388.75;1857721;76;28134;-43
2023/01/05 05:48:09;;;;;;;1.20;1.20;;;;;;;24.29;39.30;100387.38;1871219;76;28145;-46
2023/01/05 05:50:58;;;;;;;1.45;1.35;;;;;;;24.30;39.31;100390.94;1872375;76;28205;-43
2023/01/05 05:53:46;;;;;;;1.20;1.20;;;;;;;24.30;39.34;100391.79;1872241;76;28201;-43
2023/01/05 05:56:35;;;;;;;1.37;1.32;;;;;;;24.31;39.30;100393.48;1872136;76;28163;-44
2023/01/05 05:59:23;;;;;;;1.27;1.27;;;;;;;24.32;39.32;100391.03;1871753;76;28259;-43
2023/01/05 06:02:11;;;;;;;1.10;1.00;;;;;;;24.30;39.29;100390.41;1872099;76;28173;-43
2023/01/05 06:05:00;;;;;;;1.20;1.20;;;;;;;24.31;39.31;100392.11;1862582;76;28190;-45
2023/01/05 06:07:48;;;;;;;2.90;1.40;;;;;;;24.31;39.30;100394.86;1868195;76;28141;-44
2023/01/05 06:10:36;;;;;;;1.10;1.10;;;;;;;24.30;39.35;100400.55;1849347;76;28170;-44
2023/01/05 06:13:25;;;;;;;1.20;1.20;;;;;;;24.31;39.33;100397.60;1868000;76;28164;-42
2023/01/05 06:16:14;;;;;;;1.20;1.20;;;;;;;24.30;39.34;100397.80;1862507;76;28159;-45
2023/01/05 06:19:02;;;;;;;1.40;1.30;;;;;;;24.28;39.26;100396.67;1871353;76;28137;-43
2023/01/05 06:21:50;;;;;;;1.50;1.40;;;;;;;24.28;39.30;100392.55;1847704;76;28170;-43
2023/01/05 06:24:38;;;;;;;1.27;1.27;;;;;;;24.27;39.28;100389.48;1869342;76;28051;-42
2023/01/05 06:27:27;;;;;;;1.80;1.70;;;;;;;24.26;39.17;100394.69;1870299;76;28127;-44
2023/01/05 06:30:15;;;;;;;1.47;1.47;;;;;;;24.23;38.19;100385.52;1871147;76;28093;-44
2023/01/05 06:33:04;;;;;;;1.57;1.47;;;;;;;24.19;37.79;100398.54;1873670;76;28138;-45
2023/01/05 06:35:52;;;;;;;1.90;1.50;;;;;;;24.18;37.66;100401.81;1879753;76;28138;-43
2023/01/05 06:38:40;;;;;;;1.92;1.82;;;;;;;24.18;37.69;100406.48;1879707;76;28169;-47
2023/01/05 06:41:29;;;;;;;1.67;1.57;;;;;;;24.19;37.70;100400.76;1859207;76;28249;-44
2023/01/05 06:44:18;;;;;;;1.57;1.47;;;;;;;24.20;37.69;100405.16;1864452;74;28280;-44
2023/01/05 06:47:06;;;;;;;1.70;1.60;;;;;;;24.18;37.81;100403.19;1821976;77;28212;-42
2023/01/05 06:49:54;;;;;;;1.50;1.40;;;;;;;24.17;37.78;100405.64;1818895;77;28336;-45
2023/01/05 06:52:43;;;;;;;1.50;1.45;;;;;;;24.19;37.86;100403.50;1822084;77;28357;-45
2023/01/05 06:55:31;;;;;;;1.60;1.50;;;;;;;24.20;37.93;100406.54;1839371;77;28341;-45
2023/01/05 06:58:20;;;;;;;1.50;1.40;;;;;;;24.22;37.95;100404.97;1828967;77;28431;-42
2023/01/05 07:01:08;;;;;;;1.83;1.73;;;;;;;24.20;38.01;100405.16;1842284;77;28354;-47
2023/01/05 07:03:56;;;;;;;1.57;1.30;;;;;;;24.15;38.12;100392.67;1843326;77;28891;-44
2023/01/05 07:06:45;;;;;;;1.60;1.50;;;;;;;24.16;38.12;100401.20;1839015;77;28334;-43
2023/01/05 07:09:33;;;;;;;1.87;1.30;;;;;;;24.16;38.23;100399.83;1840424;77;28292;-50
2023/01/05 07:12:22;;;;;;;1.30;1.30;;;;;;;24.15;38.26;100394.05;1812189;78;28393;-43
2023/01/05 07:15:11;;;;;;;1.50;1.40;;;;;;;24.16;38.30;100392.95;1811559;77;28422;-45
2023/01/05 07:17:59;;;;;;;1.50;1.40;;;;;;;24.15;38.32;100389.92;1816523;77;28420;-47
2023/01/05 07:20:47;;;;;;;1.40;1.40;;;;;;;24.17;38.34;100386.42;1842533;77;28406;-42
2023/01/05 07:23:42;;;;;;;1.50;1.40;;;;;;;24.16;38.44;100385.25;1842424;77;28327;-42
2023/01/05 07:26:26;;;;;;;1.60;1.50;;;;;;;24.14;38.51;100380.52;1843152;77;28281;-45
2023/01/05 07:29:14;;;;;;;2.30;1.37;;;;;;;24.15;38.54;100382.22;1840019;77;28251;-44
2023/01/05 07:32:03;;;;;;;1.42;1.42;;;;;;;24.14;38.63;100372.28;1841876;77;28290;-45
2023/01/05 07:34:51;;;;;;;1.65;1.55;;;;;;;24.17;38.63;100365.83;1810099;78;28587;-43
2023/01/05 07:37:40;;;;;;;1.35;1.25;;;;;;;24.24;38.53;100367.98;1812739;78;28280;-45
2023/01/05 07:40:28;;;;;;;1.50;1.40;;;;;;;24.31;38.46;100369.30;1811517;78;28346;-43
2023/01/05 07:43:17;;;;;;;1.50;1.40;;;;;;;24.35;38.36;100369.14;1796483;78;28331;-44
2023/01/05 07:46:05;;;;;;;1.30;1.30;;;;;;;24.33;38.42;100361.14;1811391;78;28383;-46
2023/01/05 07:48:54;;;;;;;1.22;1.22;;;;;;;24.34;38.57;100364.18;1812535;78;28403;-45
2023/01/05 07:51:42;;;;;;;3.55;1.37;;;;;;;24.37;38.76;100363.73;1812938;78;28377;-46
2023/01/05 07:54:31;;;;;;;1.43;1.33;;;;;;;24.41;38.79;100362.22;1796394;78;28295;-48
2023/01/05 07:57:19;;;;;;;1.45;1.35;;;;;;;24.44;38.74;100363.67;1812816;78;28781;-49
2023/01/05 08:00:13;;;;;;;1.42;1.32;;;;;;;24.43;38.78;100364.23;1810490;78;28401;-46
2023/01/05 08:03:01;;;;;;;2.75;1.40;;;;;;;24.48;38.84;100367.11;1805219;79;28416;-47
2023/01/05 08:05:49;;;;;;;1.45;1.35;;;;;;;24.45;38.77;100362.09;1795301;78;28896;-50
2023/01/05 08:08:38;;;;;;;2.70;1.50;;;;;;;24.46;38.93;100362.38;1812761;78;28710;-45
2023/01/05 08:11:27;;;;;;;1.50;1.40;;;;;;;24.43;38.96;100361.48;1811183;78;28315;-46
2023/01/05 08:14:15;;;;;;;1.55;1.45;;;;;;;24.40;38.99;100364.67;1865731;76;28087;-44
2023/01/05 08:17:03;;;;;;;1.60;1.47;;;;;;;24.41;38.97;100364.95;1837239;77;28152;-46
2023/01/05 08:19:51;;;;;;;1.50;1.40;;;;;;;24.43;39.02;100360.11;1840445;76;28244;-47
2023/01/05 08:22:40;;;;;;;1.50;1.40;;;;;;;24.40;38.98;100356.44;1854611;76;28175;-46
2023/01/05 08:25:28;;;;;;;1.57;1.40;;;;;;;24.38;39.06;100356.34;1856593;77;28423;-44
2023/01/05 08:28:17;;;;;;;1.50;1.40;;;;;;;24.38;39.12;100358.57;1863070;76;28145;-50
2023/01/05 08:31:08;;;;;;;1.35;1.27;;;;;;;24.37;39.21;100358.25;1872816;76;28187;-46
2023/01/05 08:34:01;;;;;;;1.32;1.32;;;;;;;24.41;39.17;100351.79;1847326;76;28170;-44
2023/01/05 08:36:49;;;;;;;1.40;1.30;;;;;;;24.41;39.11;100358.66;1840790;77;28169;-44
2023/01/05 08:39:38;;;;;;;1.50;1.40;;;;;;;24.42;39.11;100369.92;1846489;76;28142;-45
2023/01/05 08:42:26;;;;;;;1.20;1.20;;;;;;;24.41;39.09;100363.59;1846218;76;28386;-44
2023/01/05 08:45:15;;;;;;;1.40;1.30;;;;;;;24.38;39.07;100361.31;1856580;76;28263;-45
2023/01/05 08:48:04;;;;;;;1.95;1.40;;;;;;;24.41;39.10;100361.40;1856773;77;28099;-43
2023/01/05 08:50:53;;;;;;;1.35;1.25;;;;;;;24.41;39.04;100360.84;1862933;76;28100;-45
2023/01/05 08:53:42;;;;;;;2.30;1.52;;;;;;;24.39;39.05;100358.86;1851281;77;28137;-48
2023/01/05 08:56:30;;;;;;;1.20;1.20;;;;;;;24.36;39.13;100354.36;1863980;76;28216;-47
2023/01/05 08:59:19;;;;;;;1.50;1.40;;;;;;;24.28;39.16;100347.77;1838471;77;28130;-44
2023/01/05 09:02:12;;;;;;;1.20;1.20;;;;;;;24.33;39.25;100354.28;1858925;76;28033;-43
2023/01/05 09:05:00;;;;;;;1.30;1.20;;;;;;;24.39;39.10;100357.48;1865416;76;37382;-44
2023/01/05 09:07:48;;;;;;;1.32;1.22;;;;;;;24.38;39.09;100351.70;1861873;76;28094;-44
2023/01/05 09:10:37;;;;;;;1.10;1.10;;;;;;;24.37;39.07;100355.50;1837430;77;28605;-46
2023/01/05 09:13:25;;;;;;;1.30;1.20;;;;;;;24.39;39.06;100351.98;1849357;77;28111;-44
2023/01/05 09:16:17;;;;;;;1.77;1.30;;;;;;;24.34;39.15;100355.94;1872837;76;28033;-47
2023/01/05 09:19:06;;;;;;;1.40;1.30;;;;;;;24.37;39.10;100351.91;1868500;76;28151;-44
2023/01/05 09:21:54;;;;;;;1.55;1.45;;;;;;;24.37;39.06;100354.12;1837114;77;30536;-47
2023/01/05 09:24:43;;;;;;;1.30;1.30;;;;;;;24.37;39.10;100351.91;1856803;77;28222;-44
2023/01/05 09:27:31;;;;;;;1.15;1.15;;;;;;;24.38;39.06;100348.11;1856733;77;28168;-44
2023/01/05 09:30:20;;;;;;;1.10;1.10;;;;;;;24.39;39.06;100342.91;1852999;77;28259;-44
2023/01/05 09:33:09;;;;;;;1.42;1.20;;;;;;;24.39;39.00;100343.75;1865943;76;28101;-45
2023/01/05 09:35:57;;;;;;;1.27;1.25;;;;;;;24.40;39.00;100337.20;1867497;76;28325;-44
2023/01/05 09:38:51;;;;;;;1.30;1.30;;;;;;;24.41;39.02;100333.94;1870960;76;28180;-48
2023/01/05 09:41:54;;;;;;;1.37;1.27;;;;;;;24.41;38.96;100335.31;1840102;77;28177;-45
2023/01/05 09:44:46;;;;;;;1.23;1.10;;;;;;;24.36;39.03;100327.75;1849471;76;28174;-46
2023/01/05 09:47:43;;;;;;;1.40;1.30;;;;;;;24.36;39.11;100326.91;1846324;76;28110;-44
2023/01/05 09:50:31;;;;;;;1.55;1.40;;;;;;;24.34;39.05;100328.48;1862580;76;28132;-44
2023/01/05 09:53:22;;;;;;;1.40;1.17;;;;;;;24.35;39.08;100324.69;1856729;77;28109;-47
2023/01/05 09:56:31;;;;;;;1.17;1.17;;;;;;;24.35;39.09;100330.17;1851205;76;28159;-45
2023/01/05 09:59:25;;;;;;;1.40;1.30;;;;;;;24.36;39.06;100324.16;1838507;77;28255;-46
2023/01/05 10:02:25;;;;;;;1.42;1.32;;;;;;;24.34;39.07;100318.87;1858799;76;28043;-46
2023/01/05 10:05:15;;;;;;;1.20;1.15;;;;;;;24.37;39.04;100319.80;1859705;76;31079;-44
2023/01/05 10:08:06;;;;;;;1.32;1.27;;;;;;;24.35;39.05;100315.08;1862548;76;28039;-46
2023/01/05 10:14:13;;;;;;;1.27;1.27;;;;;;;24.36;39.02;100318.14;1825813;78;28242;-44
2023/01/05 10:17:01;;;;;;;1.40;1.40;;;;;;;24.35;39.04;100308.20;1862592;76;28310;-45
2023/01/05 10:19:51;;;;;;;1.42;1.32;;;;;;;24.33;39.05;100299.89;1872734;76;28181;-47
2023/01/05 10:22:57;;;;;;;1.20;1.20;;;;;;;24.36;39.03;100307.69;1870897;76;28204;-49
2023/01/05 10:25:51;;;;;;;1.22;1.22;;;;;;;24.35;39.02;100303.23;1856665;77;28114;-46
2023/01/05 10:28:58;;;;;;;1.32;1.32;;;;;;;24.30;39.07;100301.17;1871402;76;28216;-47
2023/01/05 10:32:05;;;;;;;1.20;1.20;;;;;;;24.31;39.15;100313.01;1825194;76;28281;-44
2023/01/05 10:34:59;;;;;;;1.30;1.20;;;;;;;24.30;39.13;100313.53;1837633;77;28185;-45
2023/01/05 10:38:10;;;;;;;1.20;1.20;;;;;;;24.29;39.09;100310.50;1864132;76;28145;-48
2023/01/05 10:41:19;;;;;;;1.37;1.27;;;;;;;24.28;39.10;100310.18;1867794;74;28149;-46
2023/01/05 10:44:13;;;;;;;1.15;1.15;;;;;;;24.29;39.08;100309.65;1832962;76;28129;-47
2023/01/05 10:47:02;;;;;;;1.50;1.20;;;;;;;24.32;39.08;100310.02;1855339;76;28263;-44
2023/01/05 10:49:51;;;;;;;1.22;1.22;;;;;;;24.30;39.04;100305.30;1879443;76;28126;-46
2023/01/05 10:52:39;;;;;;;1.25;1.25;;;;;;;24.30;39.04;100298.95;1855570;76;28141;-45
2023/01/05 10:55:30;;;;;;;1.20;1.20;;;;;;;24.33;39.04;100291.65;1866613;76;28207;-45
2023/01/05 10:58:27;;;;;;;1.17;1.10;;;;;;;24.30;39.05;100291.56;1877939;76;28193;-44
2023/01/05 11:01:30;;;;;;;1.45;1.30;;;;;;;24.30;39.03;100290.72;1863337;76;28101;-46
2023/01/05 11:04:23;;;;;;;1.32;1.30;;;;;;;24.28;39.04;100296.45;1866827;76;28114;-45
2023/01/05 11:07:11;;;;;;;1.30;1.30;;;;;;;24.31;39.07;100286.92;1879088;76;28034;-44
2023/01/05 11:10:00;;;;;;;1.20;1.20;;;;;;;24.27;39.09;100285.14;1878734;76;28150;-45
2023/01/05 11:12:55;;;;;;;1.32;1.32;;;;;;;24.29;39.04;100277.55;1880021;76;28216;-45
2023/01/05 11:15:49;;;;;;;1.15;1.15;;;;;;;24.32;39.00;100282.56;1862099;76;28156;-44
2023/01/05 11:18:43;;;;;;;1.12;1.12;;;;;;;24.29;39.03;100272.06;1846018;77;28181;-46
2023/01/05 11:21:43;;;;;;;1.20;1.20;;;;;;;24.31;39.03;100271.30;1873791;76;28329;-45
2023/01/05 11:24:37;;;;;;;1.17;1.17;;;;;;;24.33;38.99;100266.94;1880378;76;28089;-46
2023/01/05 11:27:25;;;;;;;1.20;1.20;;;;;;;24.31;38.98;100260.31;1880137;76;28143;-46
2023/01/05 11:30:20;;;;;;;1.30;1.30;;;;;;;24.28;39.00;100254.42;1860253;76;28108;-45
2023/01/05 11:33:20;;;;;;;1.77;1.10;;;;;;;24.28;39.01;100256.64;1877852;76;28097;-46
2023/01/05 11:36:12;;;;;;;1.30;1.20;;;;;;;24.27;38.98;100243.96;1880525;76;31564;-43
2023/01/05 11:39:00;;;;;;;1.67;1.17;;;;;;;24.29;39.02;100239.11;1876696;76;28590;-46
2023/01/05 11:41:49;;;;;;;1.40;1.30;;;;;;;24.29;38.98;100232.25;1871920;76;28042;-45
2023/01/05 11:44:39;;;;;;;1.22;1.17;;;;;;;24.29;38.97;100225.38;1848108;76;28130;-45
2023/01/05 11:47:33;;;;;;;1.20;1.20;;;;;;;24.31;38.98;100222.39;1843284;76;28106;-45
2023/01/05 11:50:34;;;;;;;1.15;1.15;;;;;;;24.33;38.93;100221.10;1846940;76;28289;-46
2023/01/05 11:53:25;;;;;;;1.20;1.20;;;;;;;24.30;38.96;100210.56;1872621;75;28122;-45
2023/01/05 11:56:21;;;;;;;1.30;1.30;;;;;;;24.31;38.95;100205.92;1852122;76;28351;-44
2023/01/05 11:59:13;;;;;;;1.20;1.20;;;;;;;24.30;38.93;100202.33;1848685;76;28155;-45
2023/01/05 12:02:28;;;;;;;1.20;1.20;;;;;;;24.30;38.88;100193.25;1847006;76;28247;-46
2023/01/05 12:05:26;;;;;;;1.10;1.10;;;;;;;24.32;38.89;100195.26;1812022;78;28448;-45
2023/01/05 12:08:26;;;;;;;1.20;1.20;;;;;;;24.31;38.92;100187.55;1811601;78;28360;-44
2023/01/05 12:11:23;;;;;;;1.30;1.20;;;;;;;24.31;38.89;100181.21;1862247;76;28252;-46
2023/01/05 12:14:35;;;;;;;1.25;1.25;;;;;;;24.27;38.93;100180.00;1862376;76;28199;-49
2023/01/05 12:17:44;;;;;;;1.90;1.25;;;;;;;24.27;38.97;100180.00;1854441;76;28157;-45
2023/01/05 12:20:35;;;;;;;1.10;1.10;;;;;;;24.28;38.97;100174.80;1853576;76;28224;-47
2023/01/05 12:23:42;;;;;;;1.00;1.00;;;;;;;24.27;38.99;100167.09;1848265;76;28153;-48
2023/01/05 12:26:42;;;;;;;1.30;1.20;;;;;;;24.26;38.97;100166.80;1870625;76;28090;-45
2023/01/05 12:29:42;;;;;;;1.10;1.10;;;;;;;24.27;38.96;100164.90;1867765;76;28139;-46
2023/01/05 12:32:42;;;;;;;1.40;1.20;;;;;;;24.28;38.93;100152.30;1860926;76;28215;-45
2023/01/05 12:35:43;;;;;;;1.10;1.10;;;;;;;24.27;38.90;100147.86;1809090;78;28466;-46
2023/01/05 12:38:37;;;;;;;1.40;1.30;;;;;;;24.27;38.96;100141.56;1854554;76;28159;-44
2023/01/05 12:41:37;;;;;;;1.00;1.00;;;;;;;24.27;38.93;100139.63;1849952;76;28211;-45
2023/01/05 12:44:37;;;;;;;1.22;1.22;;;;;;;24.25;38.93;100132.16;1864409;75;28166;-44
2023/01/05 12:47:53;;;;;;;1.10;1.10;;;;;;;24.27;38.88;100132.77;1870002;76;28135;-46
2023/01/05 12:50:55;;;;;;;1.20;1.20;;;;;;;24.25;38.94;100130.79;1873601;76;28102;-45
2023/01/05 12:54:18;;;;;;;1.32;1.22;;;;;;;24.24;39.00;100127.76;1873011;76;28132;-47
2023/01/05 12:57:13;;;;;;;1.10;1.10;;;;;;;24.26;38.98;100130.27;1872620;76;28189;-47
2023/01/05 13:00:07;;;;;;;1.20;1.20;;;;;;;24.23;38.96;100119.20;1868690;76;28193;-45
2023/01/05 13:03:04;;;;;;;1.27;1.17;;;;;;;24.22;39.00;100116.17;1875144;76;28161;-47
2023/01/05 13:06:05;;;;;;;1.00;1.00;;;;;;;24.26;38.94;100112.41;1851146;76;28118;-45
2023/01/05 13:09:04;;;;;;;1.20;1.20;;;;;;;24.27;38.91;100105.88;1837480;77;28259;-46
2023/01/05 13:12:05;;;;;;;1.00;1.00;;;;;;;24.25;38.93;100100.59;1857918;76;28259;-46
2023/01/05 13:15:15;;;;;;;1.22;1.12;;;;;;;24.25;38.95;100097.84;1861255;76;28218;-44
2023/01/05 13:18:06;;;;;;;1.30;1.30;;;;;;;24.25;38.95;100095.66;1866882;76;28171;-44
2023/01/05 13:21:03;;;;;;;1.20;1.20;;;;;;;24.26;38.94;100087.70;1870933;76;28196;-45
2023/01/05 13:23:54;;;;;;;1.00;1.00;;;;;;;24.24;38.95;100079.72;1833630;77;28215;-46
2023/01/05 13:26:43;;;;;;;1.10;1.10;;;;;;;24.27;38.89;100075.11;1848040;76;28106;-45
2023/01/05 13:29:37;;;;;;;1.30;1.20;;;;;;;24.26;38.87;100070.70;1846798;76;28126;-47
2023/01/05 13:32:43;;;;;;;1.30;1.30;;;;;;;24.29;38.86;100066.66;1872106;76;28113;-45
2023/01/05 13:35:40;;;;;;;1.30;1.17;;;;;;;24.26;38.90;100069.33;1779432;78;28518;-44
2023/01/05 13:38:34;;;;;;;1.10;1.10;;;;;;;24.26;38.89;100067.12;1841915;76;28150;-45
2023/01/05 13:41:45;;;;;;;1.30;1.10;;;;;;;24.26;38.87;100056.98;1804684;77;28144;-45
2023/01/05 13:44:48;;;;;;;1.10;1.10;;;;;;;24.25;38.88;100060.78;1834928;77;28148;-45
2023/01/05 13:47:54;;;;;;;1.10;1.10;;;;;;;24.24;38.90;100056.38;1832939;76;28245;-45
2023/01/05 13:50:48;;;;;;;1.20;1.20;;;;;;;24.20;38.95;100051.02;1839062;76;28110;-48